Willsboro, New York
Current Conditions -  °F | °C
As of 4:54 PM on Thursday 27 Nov 2014 (Local Time) from KBTV Reporting Station
Overcast Overcast  
Wind Chill: -6°   Ceiling: 3100
Heat Index: -2°   Visibility: 10mi
Dew Point: -7°   Wind: 7mph
Humidity: 72%   Direction: 30°NNE
Pressure: 30.03"   Gusts: NA
Location:  44.36°N, 73.39°W
Report Text: KBTV 272154Z 03006KT 10SM OVC031 M02/M07 A3003 RMK AO2 SLP173 T10221067
Loading
Personal Weather Stations






























Interactive Weather Map New forecast layout! Learn more

10-Day Weather Forecast

Advertisements
Track Severe Weather on mobile